sensor_id;sensor_type;location;lat;lon;timestamp;pressure;altitude;pressure_sealevel;temperature;humidity
39141;BME280;24875;48.436;10.298;2023-05-24T00:00:39;96448.88;;;14.68;96.73
39141;BME280;24875;48.436;10.298;2023-05-24T00:03:06;96440.19;;;14.87;96.61
39141;BME280;24875;48.436;10.298;2023-05-24T00:05:33;96439.28;;;14.67;97.69
39141;BME280;24875;48.436;10.298;2023-05-24T00:08:02;96440.94;;;14.75;97.56
39141;BME280;24875;48.436;10.298;2023-05-24T00:10:30;96441.53;;;14.64;97.86
39141;BME280;24875;48.436;10.298;2023-05-24T00:12:56;96435.63;;;14.68;98.68
39141;BME280;24875;48.436;10.298;2023-05-24T00:15:23;96434.38;;;14.64;97.88
39141;BME280;24875;48.436;10.298;2023-05-24T00:17:50;96431.81;;;14.44;99.17
39141;BME280;24875;48.436;10.298;2023-05-24T00:20:16;96433.84;;;14.42;98.91
39141;BME280;24875;48.436;10.298;2023-05-24T00:22:45;96441.53;;;14.30;99.61
39141;BME280;24875;48.436;10.298;2023-05-24T00:25:11;96432.41;;;14.39;98.38
39141;BME280;24875;48.436;10.298;2023-05-24T00:27:39;96438.31;;;14.35;99.13
39141;BME280;24875;48.436;10.298;2023-05-24T00:30:06;96439.94;;;14.36;99.03
39141;BME280;24875;48.436;10.298;2023-05-24T00:32:33;96445.44;;;14.07;100.00
39141;BME280;24875;48.436;10.298;2023-05-24T00:35:00;96448.06;;;14.07;100.00
39141;BME280;24875;48.436;10.298;2023-05-24T00:37:26;96452.88;;;14.18;99.58
39141;BME280;24875;48.436;10.298;2023-05-24T00:39:53;96453.25;;;14.15;100.00
39141;BME280;24875;48.436;10.298;2023-05-24T00:42:20;96451.00;;;14.12;99.34
39141;BME280;24875;48.436;10.298;2023-05-24T00:44:48;96447.25;;;14.06;99.43
39141;BME280;24875;48.436;10.298;2023-05-24T00:47:15;96452.28;;;13.95;100.00
39141;BME280;24875;48.436;10.298;2023-05-24T00:49:42;96443.78;;;13.79;100.00
39141;BME280;24875;48.436;10.298;2023-05-24T00:52:08;96447.09;;;13.87;100.00
39141;BME280;24875;48.436;10.298;2023-05-24T00:54:35;96442.78;;;13.80;100.00
39141;BME280;24875;48.436;10.298;2023-05-24T00:57:02;96442.44;;;13.89;100.00
39141;BME280;24875;48.436;10.298;2023-05-24T00:59:29;96441.13;;;13.79;100.00
39141;BME280;24875;48.436;10.298;2023-05-24T01:01:57;96443.69;;;13.93;100.00
39141;BME280;24875;48.436;10.298;2023-05-24T01:04:24;96450.59;;;13.88;100.00
39141;BME280;24875;48.436;10.298;2023-05-24T01:07:02;96442.44;;;13.89;100.00
39141;BME280;24875;48.436;10.298;2023-05-24T01:09:33;96444.88;;;13.91;100.00
39141;BME280;24875;48.436;10.298;2023-05-24T01:12:13;96451.25;;;13.96;100.00
39141;BME280;24875;48.436;10.298;2023-05-24T01:14:46;96448.22;;;13.99;99.71
39141;BME280;24875;48.436;10.298;2023-05-24T01:17:22;96449.75;;;13.87;100.00
39141;BME280;24875;48.436;10.298;2023-05-24T01:19:55;96449.88;;;13.79;100.00
39141;BME280;24875;48.436;10.298;2023-05-24T01:22:36;96448.78;;;13.67;100.00
39141;BME280;24875;48.436;10.298;2023-05-24T01:25:10;96446.50;;;13.64;100.00
39141;BME280;24875;48.436;10.298;2023-05-24T01:27:39;96446.63;;;13.77;100.00
39141;BME280;24875;48.436;10.298;2023-05-24T01:30:08;96447.28;;;13.58;100.00
39141;BME280;24875;48.436;10.298;2023-05-24T01:32:35;96455.31;;;13.71;100.00
39141;BME280;24875;48.436;10.298;2023-05-24T01:35:03;96458.97;;;13.70;100.00
39141;BME280;24875;48.436;10.298;2023-05-24T01:37:30;96452.44;;;13.45;100.00
39141;BME280;24875;48.436;10.298;2023-05-24T01:39:57;96455.19;;;13.38;100.00
39141;BME280;24875;48.436;10.298;2023-05-24T01:42:25;96450.34;;;13.41;100.00
39141;BME280;24875;48.436;10.298;2023-05-24T01:45:02;96454.50;;;13.50;100.00
39141;BME280;24875;48.436;10.298;2023-05-24T01:47:38;96456.53;;;13.48;100.00
39141;BME280;24875;48.436;10.298;2023-05-24T01:50:13;96462.53;;;13.36;100.00
39141;BME280;24875;48.436;10.298;2023-05-24T01:52:43;96447.75;;;13.47;100.00
39141;BME280;24875;48.436;10.298;2023-05-24T01:55:12;96451.66;;;13.51;100.00
39141;BME280;24875;48.436;10.298;2023-05-24T01:57:42;96449.66;;;13.53;100.00
39141;BME280;24875;48.436;10.298;2023-05-24T02:00:13;96447.31;;;13.44;100.00
39141;BME280;24875;48.436;10.298;2023-05-24T02:02:40;96439.91;;;13.33;100.00
39141;BME280;24875;48.436;10.298;2023-05-24T02:05:08;96439.38;;;13.44;100.00
39141;BME280;24875;48.436;10.298;2023-05-24T02:07:35;96441.16;;;13.37;100.00
39141;BME280;24875;48.436;10.298;2023-05-24T02:10:01;96433.84;;;13.39;100.00
39141;BME280;24875;48.436;10.298;2023-05-24T02:12:28;96438.69;;;13.36;100.00
39141;BME280;24875;48.436;10.298;2023-05-24T02:14:55;96439.69;;;13.35;100.00
39141;BME280;24875;48.436;10.298;2023-05-24T02:17:23;96445.44;;;13.38;100.00
39141;BME280;24875;48.436;10.298;2023-05-24T02:19:51;96440.63;;;13.27;100.00
39141;BME280;24875;48.436;10.298;2023-05-24T02:22:17;96449.03;;;13.31;100.00
39141;BME280;24875;48.436;10.298;2023-05-24T02:24:46;96452.06;;;13.28;100.00
39141;BME280;24875;48.436;10.298;2023-05-24T02:27:13;96451.41;;;13.26;99.88
39141;BME280;24875;48.436;10.298;2023-05-24T02:29:39;96448.56;;;13.06;97.56
39141;BME280;24875;48.436;10.298;2023-05-24T02:32:06;96457.81;;;12.96;93.67
39141;BME280;24875;48.436;10.298;2023-05-24T02:34:34;96451.84;;;13.08;91.93
39141;BME280;24875;48.436;10.298;2023-05-24T02:37:00;96451.41;;;13.05;91.46
39141;BME280;24875;48.436;10.298;2023-05-24T02:39:27;96448.19;;;13.09;89.96
39141;BME280;24875;48.436;10.298;2023-05-24T02:41:53;96464.72;;;12.97;90.65
39141;BME280;24875;48.436;10.298;2023-05-24T02:44:20;96462.47;;;12.94;91.01
39141;BME280;24875;48.436;10.298;2023-05-24T02:46:46;96456.69;;;13.05;88.90
39141;BME280;24875;48.436;10.298;2023-05-24T02:49:13;96464.50;;;12.92;87.28
39141;BME280;24875;48.436;10.298;2023-05-24T02:51:41;96462.34;;;13.02;88.15
39141;BME280;24875;48.436;10.298;2023-05-24T02:54:07;96463.66;;;12.77;86.34
39141;BME280;24875;48.436;10.298;2023-05-24T02:56:34;96462.56;;;12.57;85.24
39141;BME280;24875;48.436;10.298;2023-05-24T02:59:01;96465.94;;;12.66;86.60
39141;BME280;24875;48.436;10.298;2023-05-24T03:01:28;96462.91;;;12.69;85.92
39141;BME280;24875;48.436;10.298;2023-05-24T03:03:54;96459.81;;;12.65;85.13
39141;BME280;24875;48.436;10.298;2023-05-24T03:06:21;96459.47;;;12.68;84.82
39141;BME280;24875;48.436;10.298;2023-05-24T03:08:49;96454.25;;;12.75;84.72
39141;BME280;24875;48.436;10.298;2023-05-24T03:11:15;96455.56;;;12.50;85.08
39141;BME280;24875;48.436;10.298;2023-05-24T03:13:46;96453.34;;;12.68;85.90
39141;BME280;24875;48.436;10.298;2023-05-24T03:16:12;96460.56;;;12.59;85.03
39141;BME280;24875;48.436;10.298;2023-05-24T03:18:39;96462.03;;;12.62;85.13
39141;BME280;24875;48.436;10.298;2023-05-24T03:21:05;96461.69;;;12.50;85.44
39141;BME280;24875;48.436;10.298;2023-05-24T03:23:32;96471.69;;;12.40;85.13
39141;BME280;24875;48.436;10.298;2023-05-24T03:26:00;96459.66;;;12.52;84.77
39141;BME280;24875;48.436;10.298;2023-05-24T03:28:27;96459.38;;;12.33;84.11
39141;BME280;24875;48.436;10.298;2023-05-24T03:30:54;96448.00;;;12.32;84.28
39141;BME280;24875;48.436;10.298;2023-05-24T03:33:20;96451.94;;;12.36;84.99
39141;BME280;24875;48.436;10.298;2023-05-24T03:35:47;96452.00;;;12.43;85.70
39141;BME280;24875;48.436;10.298;2023-05-24T03:38:13;96443.91;;;12.44;86.09
39141;BME280;24875;48.436;10.298;2023-05-24T03:40:40;96452.66;;;12.59;86.42
39141;BME280;24875;48.436;10.298;2023-05-24T03:43:08;96462.03;;;12.47;85.22
39141;BME280;24875;48.436;10.298;2023-05-24T03:45:35;96460.75;;;12.43;84.81
39141;BME280;24875;48.436;10.298;2023-05-24T03:48:01;96458.94;;;12.58;85.98
39141;BME280;24875;48.436;10.298;2023-05-24T03:50:28;96460.75;;;12.72;86.42
39141;BME280;24875;48.436;10.298;2023-05-24T03:52:54;96458.47;;;12.69;85.92
39141;BME280;24875;48.436;10.298;2023-05-24T03:55:21;96463.56;;;12.71;86.19
39141;BME280;24875;48.436;10.298;2023-05-24T03:57:47;96463.22;;;12.59;86.70
39141;BME280;24875;48.436;10.298;2023-05-24T04:00:16;96467.13;;;12.63;86.21
39141;BME280;24875;48.436;10.298;2023-05-24T04:02:42;96461.56;;;12.58;85.83
39141;BME280;24875;48.436;10.298;2023-05-24T04:05:09;96456.00;;;12.53;85.31
39141;BME280;24875;48.436;10.298;2023-05-24T04:07:36;96467.31;;;12.47;85.70
39141;BME280;24875;48.436;10.298;2023-05-24T04:10:03;96459.94;;;12.57;85.77
39141;BME280;24875;48.436;10.298;2023-05-24T04:12:30;96456.56;;;12.34;86.12
39141;BME280;24875;48.436;10.298;2023-05-24T04:14:57;96453.63;;;12.58;86.75
39141;BME280;24875;48.436;10.298;2023-05-24T04:17:26;96454.56;;;12.51;86.37
39141;BME280;24875;48.436;10.298;2023-05-24T04:19:54;96455.56;;;12.35;86.19
39141;BME280;24875;48.436;10.298;2023-05-24T04:22:21;96449.53;;;12.27;87.02
39141;BME280;24875;48.436;10.298;2023-05-24T04:24:47;96448.38;;;12.44;87.34
39141;BME280;24875;48.436;10.298;2023-05-24T04:27:14;96448.38;;;12.44;86.27
39141;BME280;24875;48.436;10.298;2023-05-24T04:29:43;96450.72;;;12.53;87.40
39141;BME280;24875;48.436;10.298;2023-05-24T04:32:14;96461.13;;;12.40;86.80
39141;BME280;24875;48.436;10.298;2023-05-24T04:34:42;96454.03;;;12.55;86.21
39141;BME280;24875;48.436;10.298;2023-05-24T04:37:10;96452.03;;;12.28;86.20
39141;BME280;24875;48.436;10.298;2023-05-24T04:39:38;96458.22;;;12.21;85.51
39141;BME280;24875;48.436;10.298;2023-05-24T04:42:05;96461.66;;;12.21;86.88
39141;BME280;24875;48.436;10.298;2023-05-24T04:44:32;96477.69;;;12.06;86.06
39141;BME280;24875;48.436;10.298;2023-05-24T04:46:58;96483.44;;;12.38;85.75
39141;BME280;24875;48.436;10.298;2023-05-24T04:49:26;96494.63;;;12.25;84.20
39141;BME280;24875;48.436;10.298;2023-05-24T04:51:54;96482.00;;;12.35;84.92
39141;BME280;24875;48.436;10.298;2023-05-24T04:54:21;96485.09;;;12.39;84.86
39141;BME280;24875;48.436;10.298;2023-05-24T04:56:48;96483.63;;;12.36;84.44
39141;BME280;24875;48.436;10.298;2023-05-24T04:59:14;96491.56;;;12.36;83.64
39141;BME280;24875;48.436;10.298;2023-05-24T05:01:40;96481.63;;;12.10;85.17
39141;BME280;24875;48.436;10.298;2023-05-24T05:04:07;96484.44;;;12.22;84.75
39141;BME280;24875;48.436;10.298;2023-05-24T05:06:33;96481.06;;;12.14;84.73
39141;BME280;24875;48.436;10.298;2023-05-24T05:09:04;96484.91;;;12.26;83.34
39141;BME280;24875;48.436;10.298;2023-05-24T05:11:33;96487.38;;;12.27;84.66
39141;BME280;24875;48.436;10.298;2023-05-24T05:13:59;96480.28;;;12.42;83.20
39141;BME280;24875;48.436;10.298;2023-05-24T05:16:26;96488.56;;;12.54;83.49
39141;BME280;24875;48.436;10.298;2023-05-24T05:18:53;96489.09;;;12.35;84.11
39141;BME280;24875;48.436;10.298;2023-05-24T05:21:19;96481.19;;;12.49;82.88
39141;BME280;24875;48.436;10.298;2023-05-24T05:23:46;96484.00;;;12.62;83.07
39141;BME280;24875;48.436;10.298;2023-05-24T05:26:14;96476.41;;;12.88;83.96
39141;BME280;24875;48.436;10.298;2023-05-24T05:28:40;96483.44;;;12.81;84.42
39141;BME280;24875;48.436;10.298;2023-05-24T05:31:06;96478.25;;;12.73;82.13
39141;BME280;24875;48.436;10.298;2023-05-24T05:33:33;96470.41;;;12.94;82.21
39141;BME280;24875;48.436;10.298;2023-05-24T05:35:59;96467.19;;;12.84;83.61
39141;BME280;24875;48.436;10.298;2023-05-24T05:38:26;96471.00;;;12.81;85.50
39141;BME280;24875;48.436;10.298;2023-05-24T05:40:52;96472.19;;;12.79;84.52
39141;BME280;24875;48.436;10.298;2023-05-24T05:43:20;96468.47;;;12.88;84.70
39141;BME280;24875;48.436;10.298;2023-05-24T05:45:47;96464.84;;;12.89;83.96
39141;BME280;24875;48.436;10.298;2023-05-24T05:48:13;96468.94;;;12.77;83.35
39141;BME280;24875;48.436;10.298;2023-05-24T05:50:40;96467.28;;;12.90;84.14
39141;BME280;24875;48.436;10.298;2023-05-24T05:53:06;96469.66;;;12.85;85.71
39141;BME280;24875;48.436;10.298;2023-05-24T05:55:33;96479.72;;;12.90;85.05
39141;BME280;24875;48.436;10.298;2023-05-24T05:58:00;96472.88;;;12.67;84.42
39141;BME280;24875;48.436;10.298;2023-05-24T06:00:28;96469.59;;;12.93;83.52
39141;BME280;24875;48.436;10.298;2023-05-24T06:02:54;96481.97;;;12.93;84.17
39141;BME280;24875;48.436;10.298;2023-05-24T06:05:21;96477.59;;;12.85;85.75
39141;BME280;24875;48.436;10.298;2023-05-24T06:07:47;96484.88;;;12.83;84.47
39141;BME280;24875;48.436;10.298;2023-05-24T06:10:14;96487.56;;;12.69;84.15
39141;BME280;24875;48.436;10.298;2023-05-24T06:12:40;96491.38;;;12.95;85.41
39141;BME280;24875;48.436;10.298;2023-05-24T06:15:08;96486.06;;;13.10;84.69
39141;BME280;24875;48.436;10.298;2023-05-24T06:17:36;96486.22;;;13.08;85.08
39141;BME280;24875;48.436;10.298;2023-05-24T06:20:02;96491.34;;;13.10;84.84
39141;BME280;24875;48.436;10.298;2023-05-24T06:22:39;96487.53;;;12.98;84.01
39141;BME280;24875;48.436;10.298;2023-05-24T06:25:07;96494.47;;;12.99;84.47
39141;BME280;24875;48.436;10.298;2023-05-24T06:27:34;96483.63;;;12.79;84.75
39141;BME280;24875;48.436;10.298;2023-05-24T06:30:00;96491.72;;;13.07;85.37
39141;BME280;24875;48.436;10.298;2023-05-24T06:32:27;96493.59;;;12.92;83.64
39141;BME280;24875;48.436;10.298;2023-05-24T06:34:55;96485.97;;;13.03;83.26
39141;BME280;24875;48.436;10.298;2023-05-24T06:37:22;96490.28;;;12.90;83.94
39141;BME280;24875;48.436;10.298;2023-05-24T06:39:49;96494.16;;;13.08;82.81
39141;BME280;24875;48.436;10.298;2023-05-24T06:42:16;96482.72;;;13.22;84.77
39141;BME280;24875;48.436;10.298;2023-05-24T06:44:42;96483.81;;;13.28;82.97
39141;BME280;24875;48.436;10.298;2023-05-24T06:47:09;96492.19;;;13.31;83.44
39141;BME280;24875;48.436;10.298;2023-05-24T06:49:35;96494.75;;;13.39;82.34
39141;BME280;24875;48.436;10.298;2023-05-24T06:52:04;96489.88;;;13.42;80.85
39141;BME280;24875;48.436;10.298;2023-05-24T06:54:31;96491.94;;;13.26;80.99
39141;BME280;24875;48.436;10.298;2023-05-24T06:56:58;96496.41;;;13.26;79.95
39141;BME280;24875;48.436;10.298;2023-05-24T06:59:24;96488.81;;;13.37;80.65
39141;BME280;24875;48.436;10.298;2023-05-24T07:01:51;96490.44;;;13.38;82.67
39141;BME280;24875;48.436;10.298;2023-05-24T07:04:21;96496.06;;;13.49;80.65
39141;BME280;24875;48.436;10.298;2023-05-24T07:06:48;96497.59;;;13.58;79.00
39141;BME280;24875;48.436;10.298;2023-05-24T07:09:16;96494.53;;;13.40;79.50
39141;BME280;24875;48.436;10.298;2023-05-24T07:11:43;96499.47;;;13.43;78.75
39141;BME280;24875;48.436;10.298;2023-05-24T07:14:09;96496.41;;;13.46;80.16
39141;BME280;24875;48.436;10.298;2023-05-24T07:16:36;96502.16;;;13.71;79.18
39141;BME280;24875;48.436;10.298;2023-05-24T07:19:02;96500.53;;;13.49;79.93
39141;BME280;24875;48.436;10.298;2023-05-24T07:21:29;96507.22;;;13.87;81.46
39141;BME280;24875;48.436;10.298;2023-05-24T07:23:56;96507.22;;;13.87;81.99
39141;BME280;24875;48.436;10.298;2023-05-24T07:26:23;96507.91;;;13.95;80.98
39141;BME280;24875;48.436;10.298;2023-05-24T07:28:50;96514.09;;;13.81;78.81
39141;BME280;24875;48.436;10.298;2023-05-24T07:31:17;96510.16;;;13.98;75.70
39141;BME280;24875;48.436;10.298;2023-05-24T07:33:43;96519.63;;;14.07;77.93
39141;BME280;24875;48.436;10.298;2023-05-24T07:36:10;96529.09;;;14.16;78.63
39141;BME280;24875;48.436;10.298;2023-05-24T07:38:36;96524.66;;;14.23;77.11
39141;BME280;24875;48.436;10.298;2023-05-24T07:41:05;96526.72;;;14.55;79.24
39141;BME280;24875;48.436;10.298;2023-05-24T07:43:33;96532.78;;;14.76;73.87
39141;BME280;24875;48.436;10.298;2023-05-24T07:46:02;96533.53;;;14.63;74.04
39141;BME280;24875;48.436;10.298;2023-05-24T07:48:28;96527.47;;;15.10;72.29
39141;BME280;24875;48.436;10.298;2023-05-24T07:50:55;96526.81;;;15.01;71.92
39141;BME280;24875;48.436;10.298;2023-05-24T07:53:21;96526.00;;;15.01;74.14
39141;BME280;24875;48.436;10.298;2023-05-24T07:55:48;96516.13;;;15.35;76.46
39141;BME280;24875;48.436;10.298;2023-05-24T07:58:15;96523.59;;;15.65;76.81
39141;BME280;24875;48.436;10.298;2023-05-24T08:00:42;96523.63;;;15.19;75.31
39141;BME280;24875;48.436;10.298;2023-05-24T08:03:09;96531.81;;;14.83;76.60
39141;BME280;24875;48.436;10.298;2023-05-24T08:05:38;96526.78;;;14.95;73.55
39141;BME280;24875;48.436;10.298;2023-05-24T08:08:05;96531.53;;;14.72;73.53
39141;BME280;24875;48.436;10.298;2023-05-24T08:10:31;96531.28;;;14.94;72.81
39141;BME280;24875;48.436;10.298;2023-05-24T08:12:58;96529.13;;;15.17;73.22
39141;BME280;24875;48.436;10.298;2023-05-24T08:15:24;96539.34;;;14.80;75.69
39141;BME280;24875;48.436;10.298;2023-05-24T08:17:52;96534.03;;;14.80;76.52
39141;BME280;24875;48.436;10.298;2023-05-24T08:20:19;96534.06;;;14.86;72.70
39141;BME280;24875;48.436;10.298;2023-05-24T08:22:45;96541.03;;;14.87;72.75
39141;BME280;24875;48.436;10.298;2023-05-24T08:25:13;96544.72;;;14.93;73.10
39141;BME280;24875;48.436;10.298;2023-05-24T08:27:40;96538.50;;;14.73;73.33
39141;BME280;24875;48.436;10.298;2023-05-24T08:30:07;96543.97;;;14.65;75.99
39141;BME280;24875;48.436;10.298;2023-05-24T08:32:35;96543.88;;;14.59;75.70
39141;BME280;24875;48.436;10.298;2023-05-24T08:35:04;96534.06;;;14.86;74.45
39141;BME280;24875;48.436;10.298;2023-05-24T08:37:31;96540.72;;;14.69;74.16
39141;BME280;24875;48.436;10.298;2023-05-24T08:39:58;96538.81;;;14.63;74.37
39141;BME280;24875;48.436;10.298;2023-05-24T08:42:24;96548.16;;;14.53;75.21
39141;BME280;24875;48.436;10.298;2023-05-24T08:44:52;96540.75;;;14.42;76.74
39141;BME280;24875;48.436;10.298;2023-05-24T08:47:21;96549.25;;;14.38;76.99
39141;BME280;24875;48.436;10.298;2023-05-24T08:49:49;96543.81;;;14.73;77.16
39141;BME280;24875;48.436;10.298;2023-05-24T08:52:18;96546.31;;;14.87;75.25
39141;BME280;24875;48.436;10.298;2023-05-24T08:54:45;96537.41;;;15.01;76.07
39141;BME280;24875;48.436;10.298;2023-05-24T08:57:14;96540.75;;;15.10;75.44
39141;BME280;24875;48.436;10.298;2023-05-24T08:59:41;96538.53;;;14.79;72.54
39141;BME280;24875;48.436;10.298;2023-05-24T09:02:11;96555.56;;;14.64;73.74
39141;BME280;24875;48.436;10.298;2023-05-24T09:04:40;96549.19;;;14.86;71.10
39141;BME280;24875;48.436;10.298;2023-05-24T09:07:08;96555.06;;;14.81;70.79
39141;BME280;24875;48.436;10.298;2023-05-24T09:09:40;96547.63;;;15.04;71.53
39141;BME280;24875;48.436;10.298;2023-05-24T09:12:10;96550.16;;;15.12;69.25
39141;BME280;24875;48.436;10.298;2023-05-24T09:14:42;96544.56;;;15.41;68.21
39141;BME280;24875;48.436;10.298;2023-05-24T09:17:10;96547.00;;;15.36;69.27
39141;BME280;24875;48.436;10.298;2023-05-24T09:19:42;96539.25;;;15.41;72.40
39141;BME280;24875;48.436;10.298;2023-05-24T09:22:09;96555.66;;;15.17;72.29
39141;BME280;24875;48.436;10.298;2023-05-24T09:24:41;96550.84;;;15.27;72.12
39141;BME280;24875;48.436;10.298;2023-05-24T09:27:08;96556.69;;;14.82;71.46
39141;BME280;24875;48.436;10.298;2023-05-24T09:29:35;96563.41;;;14.78;70.88
39141;BME280;24875;48.436;10.298;2023-05-24T09:32:01;96561.84;;;14.57;70.55
39141;BME280;24875;48.436;10.298;2023-05-24T09:34:28;96558.09;;;14.45;70.95
39141;BME280;24875;48.436;10.298;2023-05-24T09:37:00;96556.66;;;14.76;69.63
39141;BME280;24875;48.436;10.298;2023-05-24T09:39:27;96557.22;;;14.65;72.36
39141;BME280;24875;48.436;10.298;2023-05-24T09:41:55;96551.47;;;14.62;70.13
39141;BME280;24875;48.436;10.298;2023-05-24T09:44:23;96561.81;;;14.50;67.61
39141;BME280;24875;48.436;10.298;2023-05-24T09:46:50;96564.09;;;14.60;70.03
39141;BME280;24875;48.436;10.298;2023-05-24T09:49:19;96571.69;;;14.96;68.80
39141;BME280;24875;48.436;10.298;2023-05-24T09:51:46;96566.63;;;15.01;69.03
39141;BME280;24875;48.436;10.298;2023-05-24T09:54:13;96566.44;;;15.09;67.18
39141;BME280;24875;48.436;10.298;2023-05-24T09:56:40;96555.47;;;15.19;67.72
39141;BME280;24875;48.436;10.298;2023-05-24T09:59:08;96564.03;;;15.14;71.85
39141;BME280;24875;48.436;10.298;2023-05-24T10:01:35;96561.22;;;15.22;67.12
39141;BME280;24875;48.436;10.298;2023-05-24T10:04:02;96569.41;;;15.27;68.00
39141;BME280;24875;48.436;10.298;2023-05-24T10:06:32;96560.34;;;15.55;67.74
39141;BME280;24875;48.436;10.298;2023-05-24T10:09:01;96561.25;;;15.28;68.86
39141;BME280;24875;48.436;10.298;2023-05-24T10:11:29;96560.06;;;15.37;66.99
39141;BME280;24875;48.436;10.298;2023-05-24T10:13:58;96567.44;;;15.35;67.74
39141;BME280;24875;48.436;10.298;2023-05-24T10:16:25;96568.28;;;15.49;65.92
39141;BME280;24875;48.436;10.298;2023-05-24T10:18:52;96569.44;;;15.33;65.54
39141;BME280;24875;48.436;10.298;2023-05-24T10:21:22;96575.25;;;15.10;68.20
39141;BME280;24875;48.436;10.298;2023-05-24T10:23:51;96568.50;;;15.07;67.31
39141;BME280;24875;48.436;10.298;2023-05-24T10:26:23;96559.22;;;15.24;69.38
39141;BME280;24875;48.436;10.298;2023-05-24T10:28:54;96565.56;;;14.96;68.38
39141;BME280;24875;48.436;10.298;2023-05-24T10:31:26;96554.03;;;15.16;67.84
39141;BME280;24875;48.436;10.298;2023-05-24T10:33:58;96566.53;;;15.22;68.59
39141;BME280;24875;48.436;10.298;2023-05-24T10:36:25;96562.31;;;15.34;69.65
39141;BME280;24875;48.436;10.298;2023-05-24T10:38:52;96565.47;;;15.57;69.71
39141;BME280;24875;48.436;10.298;2023-05-24T10:41:19;96560.69;;;15.33;67.64
39141;BME280;24875;48.436;10.298;2023-05-24T10:43:46;96556.34;;;15.25;69.43
39141;BME280;24875;48.436;10.298;2023-05-24T10:46:14;96556.19;;;15.40;67.00
39141;BME280;24875;48.436;10.298;2023-05-24T10:48:43;96561.34;;;15.41;67.86
39141;BME280;24875;48.436;10.298;2023-05-24T10:51:29;96550.78;;;15.61;66.61
39141;BME280;24875;48.436;10.298;2023-05-24T10:53:57;96555.47;;;15.19;65.64
39141;BME280;24875;48.436;10.298;2023-05-24T10:56:26;96547.25;;;15.07;64.22
39141;BME280;24875;48.436;10.298;2023-05-24T10:58:59;96548.91;;;15.15;67.46
39141;BME280;24875;48.436;10.298;2023-05-24T11:01:27;96551.16;;;15.11;68.74
39141;BME280;24875;48.436;10.298;2023-05-24T11:04:06;96545.28;;;14.82;66.45
39141;BME280;24875;48.436;10.298;2023-05-24T11:06:47;96548.06;;;15.08;65.49
39141;BME280;24875;48.436;10.298;2023-05-24T11:09:14;96544.03;;;15.18;66.68
39141;BME280;24875;48.436;10.298;2023-05-24T11:11:43;96544.66;;;15.20;67.84
39141;BME280;24875;48.436;10.298;2023-05-24T11:14:11;96540.19;;;14.80;68.24
39141;BME280;24875;48.436;10.298;2023-05-24T11:16:38;96540.88;;;15.02;66.71
39141;BME280;24875;48.436;10.298;2023-05-24T11:19:13;96533.91;;;15.28;66.56
39141;BME280;24875;48.436;10.298;2023-05-24T11:21:43;96539.66;;;15.38;67.21
39141;BME280;24875;48.436;10.298;2023-05-24T11:24:09;96540.78;;;15.16;72.53
39141;BME280;24875;48.436;10.298;2023-05-24T11:26:36;96530.44;;;15.27;66.95
39141;BME280;24875;48.436;10.298;2023-05-24T11:29:03;96541.94;;;15.07;65.50
39141;BME280;24875;48.436;10.298;2023-05-24T11:31:30;96537.91;;;15.18;69.33
39141;BME280;24875;48.436;10.298;2023-05-24T11:33:58;96540.22;;;15.27;65.55
39141;BME280;24875;48.436;10.298;2023-05-24T11:36:26;96533.16;;;15.07;68.73
39141;BME280;24875;48.436;10.298;2023-05-24T11:38:54;96527.84;;;15.47;67.96
39141;BME280;24875;48.436;10.298;2023-05-24T11:41:20;96522.69;;;15.32;70.50
39141;BME280;24875;48.436;10.298;2023-05-24T11:43:47;96522.88;;;15.31;70.59
39141;BME280;24875;48.436;10.298;2023-05-24T11:46:14;96534.63;;;15.16;67.58
39141;BME280;24875;48.436;10.298;2023-05-24T11:48:41;96538.00;;;15.30;68.76
39141;BME280;24875;48.436;10.298;2023-05-24T11:51:07;96533.16;;;15.47;66.95
39141;BME280;24875;48.436;10.298;2023-05-24T11:53:36;96518.06;;;15.67;69.02
39141;BME280;24875;48.436;10.298;2023-05-24T11:56:03;96521.72;;;15.53;68.62
39141;BME280;24875;48.436;10.298;2023-05-24T11:58:36;96524.09;;;15.35;68.82
39141;BME280;24875;48.436;10.298;2023-05-24T12:01:22;96520.22;;;15.31;68.94
39141;BME280;24875;48.436;10.298;2023-05-24T12:03:49;96519.88;;;15.07;70.04
39141;BME280;24875;48.436;10.298;2023-05-24T12:06:16;96521.56;;;15.14;72.35
39141;BME280;24875;48.436;10.298;2023-05-24T12:08:44;96533.34;;;15.39;74.43
39141;BME280;24875;48.436;10.298;2023-05-24T12:11:11;96540.91;;;15.42;69.25
39141;BME280;24875;48.436;10.298;2023-05-24T12:13:39;96529.00;;;15.25;68.19
39141;BME280;24875;48.436;10.298;2023-05-24T12:16:05;96532.88;;;14.95;67.78
39141;BME280;24875;48.436;10.298;2023-05-24T12:18:32;96542.31;;;15.04;69.81
39141;BME280;24875;48.436;10.298;2023-05-24T12:20:59;96546.38;;;14.94;68.35
39141;BME280;24875;48.436;10.298;2023-05-24T12:23:26;96539.38;;;14.86;68.93
39141;BME280;24875;48.436;10.298;2023-05-24T12:26:00;96546.16;;;15.29;69.11
39141;BME280;24875;48.436;10.298;2023-05-24T12:28:31;96533.81;;;15.15;68.40
39141;BME280;24875;48.436;10.298;2023-05-24T12:30:59;96534.56;;;15.03;68.35
39141;BME280;24875;48.436;10.298;2023-05-24T12:33:27;96530.28;;;15.08;66.25
39141;BME280;24875;48.436;10.298;2023-05-24T12:35:53;96530.25;;;14.62;66.20
39141;BME280;24875;48.436;10.298;2023-05-24T12:38:22;96527.88;;;14.73;69.94
39141;BME280;24875;48.436;10.298;2023-05-24T12:40:49;96531.75;;;15.17;71.18
39141;BME280;24875;48.436;10.298;2023-05-24T12:43:18;96530.16;;;15.16;70.61
39141;BME280;24875;48.436;10.298;2023-05-24T12:45:45;96521.88;;;14.92;66.93
39141;BME280;24875;48.436;10.298;2023-05-24T12:48:12;96532.34;;;14.72;67.65
39141;BME280;24875;48.436;10.298;2023-05-24T12:50:39;96543.25;;;14.84;68.18